Latest Coastal Weather Observations for Redcliffe

IDQ60701

Issued at 7:52 pm EST Sunday 7 March 2021 (issued every 10 minutes, with the page automatically refreshed every 10 minutes)

About coastal observations | Map of coastal stations | Coastal observations for QLD | Marine services | Other Formats
Station Details ID: 040958 Name: REDCLIFFE Lat: -27.22 Lon: 153.09 Height: 12.6 m
Data from the previous 72 hours. | See also: Recent months at Redcliffe
Date/Time
EST
Wind Sea
Height
m
Swell Vis
km
Cloud Weather Temp
°C
Press
MSL
hPa
Rain since
9am
mm
Dir  Spd
kts
Gust
kts
Height
m
Period
s
Dir
07/07:30pm NE 16 21 - - - - - - - 24.9 1014.8 0.0
07/07:00pm NE 15 18 - - - - - - - 24.9 1014.5 0.0
07/06:30pm NE 15 17 - - - - - - - 25.0 1014.2 0.0
07/06:00pm NE 13 16 - - - - - - - 24.9 1013.8 0.0
07/05:30pm NE 15 17 - - - - - - - 25.2 1013.2 0.0
07/05:00pm NE 15 17 - - - - - - - 25.5 1013.3 0.0
07/04:30pm NE 15 17 - - - - - - - 25.7 1013.0 0.0
07/04:00pm NE 15 16 - - - - - - - 25.8 1012.8 0.0
07/03:30pm NE 13 16 - - - - - - - 26.1 1012.7 0.0
07/03:00pm NE 12 15 - - - - - - - 26.4 1012.7 0.0
07/02:30pm ENE 11 14 - - - - - - - 26.0 1013.1 0.0
07/02:00pm ENE 12 15 - - - - - - - 25.9 1013.1 0.0
07/01:30pm E 11 13 - - - - - - - 25.5 1013.5 0.0
07/01:00pm E 9 11 - - - - - - - 25.2 1013.8 0.0
07/12:30pm ESE 11 13 - - - - - - - 25.5 1014.1 0.0
07/12:00pm ESE 7 10 - - - - - - - 25.7 1014.6 0.0
07/11:30am E 5 6 - - - - - - - 26.6 1014.9 0.0
07/11:00am NE 5 6 - - - - - - - 25.6 1015.1 0.0
07/10:30am NE 5 5 - - - - - - - 25.9 1015.3 0.0
07/10:00am NNE 6 7 - - - - - - - 25.3 1015.7 0.0
07/09:30am NW 6 8 - - - - - - - 24.2 1016.0 0.0
07/09:00am NW 5 8 - - - - - - - 24.2 1015.8 28.8
07/08:30am N 7 9 - - - - - - - 23.7 1015.8 28.8
07/08:00am W 4 6 - - - - - - - 22.3 1015.5 28.8
07/07:30am WNW 4 5 - - - - - - - 22.4 1015.1 28.8
07/07:00am ENE 3 5 - - - - - - - 21.6 1015.0 28.8
07/06:30am ESE 9 12 - - - - - - - 21.3 1014.6 28.8
07/06:00am E 9 11 - - - - - - Rain 20.8 1014.2 28.2
07/05:30am E 10 12 - - - - - - - 21.3 1013.8 25.4
07/05:00am E 9 11 - - - - - - - 21.0 1013.3 25.4
07/04:30am ENE 11 13 - - - - - - - 21.2 1012.9 25.4
07/04:00am NE 7 8 - - - - - - - 20.3 1012.8 24.6
07/03:30am E 6 8 - - - - - - - 20.5 1012.7 19.4
07/03:00am WSW 5 7 - - - - - - Recent precip. 21.3 1012.4 10.0
07/02:30am N 6 8 - - - - - - - 21.0 1012.5 9.2
07/02:00am NE 8 13 - - - - - - - 24.0 1012.4 0.2
07/01:30am E 9 12 - - - - - - - 24.1 1012.5 0.2
07/01:00am E 11 15 - - - - - - - 23.7 1012.5 0.2
07/12:30am E 11 14 - - - - - - - 23.2 1012.7 0.2
07/12:00am E 10 12 - - - - - - - 24.0 1012.8 0.2
 
Date/Time
EST
Wind Sea
Height
m
Swell Vis
km
Cloud Weather Temp
°C
Press
MSL
hPa
Rain since
9am
mm
Dir  Spd
kts
Gust
kts
Height
m
Period
s
Dir
06/11:30pm ESE 15 18 - - - - - - - 24.1 1012.7 0.2
06/11:00pm ESE 15 17 - - - - - - - 24.0 1012.8 0.2
06/10:30pm SE 15 19 - - - - - - - 24.5 1012.8 0.2
06/10:00pm ESE 14 16 - - - - - - - 24.5 1012.6 0.2
06/09:30pm E 15 17 - - - - - - - 24.5 1012.6 0.2
06/09:00pm ESE 14 16 - - - - - - - 24.3 1012.3 0.2
06/08:30pm E 14 17 - - - - - - - 24.5 1012.0 0.2
06/08:00pm E 14 16 - - - - - - - 24.5 1011.6 0.2
06/07:30pm ESE 14 17 - - - - - - - 24.7 1011.3 0.2
06/07:00pm ESE 14 17 - - - - - - - 24.7 1010.9 0.2
06/06:30pm ESE 15 20 - - - - - - - 24.7 1010.4 0.2
06/06:00pm ESE 14 17 - - - - - - - 24.7 1010.2 0.2
06/05:30pm ESE 16 19 - - - - - - - 25.0 1009.9 0.2
06/05:00pm ESE 17 19 - - - - - - - 25.1 1009.3 0.2
06/04:30pm ESE 15 18 - - - - - - - 25.7 1009.0 0.2
06/04:00pm ESE 16 19 - - - - - - - 25.8 1008.8 0.2
06/03:30pm ESE 15 17 - - - - - - - 26.1 1008.8 0.2
06/03:00pm E 15 19 - - - - - - - 26.1 1009.0 0.2
06/02:30pm ESE 16 18 - - - - - - - 26.1 1009.0 0.2
06/02:00pm ESE 17 19 - - - - - - - 26.2 1009.0 0.2
06/01:30pm SE 15 17 - - - - - - - 26.9 1009.1 0.2
06/01:00pm ESE 13 16 - - - - - - - 27.0 1009.1 0.2
06/12:30pm SE 13 15 - - - - - - - 27.0 1009.3 0.2
06/12:00pm SE 14 17 - - - - - - Recent precip. 26.2 1009.4 0.2
06/11:30am SE 15 17 - - - - - - - 26.0 1009.8 0.2
06/11:00am SE 16 19 - - - - - - - 25.7 1010.1 0.0
06/10:30am SSE 17 20 - - - - - - - 25.4 1010.1 0.0
06/10:00am SE 18 20 - - - - - - - 25.5 1009.9 0.0
06/09:30am SSE 15 18 - - - - - - - 25.6 1009.9 0.0
06/09:00am SSE 15 20 - - - - - - - 24.8 1009.9 0.2
06/08:30am SE 9 12 - - - - - - - 24.5 1009.6 0.2
06/08:00am SE 11 14 - - - - - - - 23.3 1009.3 0.2
06/07:30am SSE 13 15 - - - - - - - 23.1 1008.9 0.2
06/07:00am SSE 12 15 - - - - - - - 23.2 1008.4 0.0
06/06:30am S 14 16 - - - - - - - 22.6 1007.9 0.0
06/06:00am S 13 15 - - - - - - - 22.5 1007.5 0.0
06/05:30am S 15 18 - - - - - - - 22.8 1007.1 0.0
06/05:00am S 16 18 - - - - - - - 22.8 1006.7 0.0
06/04:30am S 16 19 - - - - - - - 22.7 1006.4 0.0
06/04:00am S 17 20 - - - - - - - 22.9 1006.4 0.0
06/03:30am S 19 23 - - - - - - - 23.2 1006.4 0.0
06/03:00am S 17 21 - - - - - - - 23.4 1006.2 0.0
06/02:30am S 14 18 - - - - - - - 23.2 1006.2 0.0
06/02:00am S 10 14 - - - - - - - 22.4 1006.3 0.0
06/01:30am S 12 15 - - - - - - - 22.5 1006.4 0.0
06/01:00am SSW 7 11 - - - - - - - 23.1 1006.6 0.0
06/12:30am SW 6 8 - - - - - - - 22.3 1006.8 0.0
06/12:00am WSW 6 7 - - - - - - - 22.2 1006.9 0.0
 
Date/Time
EST
Wind Sea
Height
m
Swell Vis
km
Cloud Weather Temp
°C
Press
MSL
hPa
Rain since
9am
mm
Dir  Spd
kts
Gust
kts
Height
m
Period
s
Dir
05/11:30pm WSW 6 7 - - - - - - - 22.5 1006.9 0.0
05/11:00pm SW 5 5 - - - - - - - 22.2 1006.9 0.0
05/10:30pm CALM 0 0 - - - - - - - 22.8 1006.6 0.0
05/10:00pm NW 5 6 - - - - - - - 23.4 1006.4 0.0
05/09:30pm NNW 6 7 - - - - - - - 24.1 1006.4 0.0
05/09:00pm N 8 10 - - - - - - - 24.5 1006.2 0.0
05/08:30pm N 9 10 - - - - - - - 24.7 1006.2 0.0
05/08:00pm NNE 10 12 - - - - - - - 24.8 1006.2 0.0
05/07:30pm NNE 9 11 - - - - - - - 25.0 1005.8 0.0
05/07:00pm NNE 11 13 - - - - - - - 25.0 1005.4 0.0
05/06:30pm N 13 14 - - - - - - - 25.1 1005.1 0.0
05/06:00pm NNE 14 16 - - - - - - - 25.3 1004.7 0.0
05/05:30pm NNE 15 17 - - - - - - - 25.8 1004.2 0.0
05/05:00pm NNE 16 17 - - - - - - - 26.3 1004.0 0.0
05/04:30pm NE 15 17 - - - - - - - 26.6 1003.8 0.0
05/04:00pm NE 15 16 - - - - - - - 27.2 1003.6 0.0
05/03:30pm NE 14 16 - - - - - - - 26.8 1003.7 0.0
05/03:00pm NE 14 15 - - - - - - - 27.3 1004.0 0.0
05/02:30pm NE 12 14 - - - - - - - 27.6 1004.4 0.0
05/02:00pm ENE 10 13 - - - - - - - 27.2 1004.9 0.0
05/01:30pm NE 10 12 - - - - - - - 27.4 1005.4 0.0
05/01:00pm NE 9 11 - - - - - - - 27.3 1005.8 0.0
05/12:30pm NNE 8 10 - - - - - - - 26.9 1006.3 0.0
05/12:00pm NNE 8 9 - - - - - - - 26.5 1006.8 0.0
05/11:30am ENE 8 9 - - - - - - - 26.4 1007.4 0.0
05/11:00am ENE 7 9 - - - - - - - 26.3 1007.8 0.0
05/10:30am E 5 7 - - - - - - - 26.3 1008.3 0.0
05/10:00am SE 6 7 - - - - - - - 25.6 1008.6 0.0
05/09:30am SSE 7 8 - - - - - - - 25.3 1008.8 0.0
05/09:00am S 7 9 - - - - - - - 25.1 1008.9 6.8
05/08:30am SSW 7 9 - - - - - - - 24.3 1008.9 6.8
05/08:00am SW 8 10 - - - - - - - 22.7 1008.8 6.8
05/07:30am SW 8 10 - - - - - - - 21.6 1008.7 6.8
05/07:00am SW 6 8 - - - - - - - 20.1 1008.6 6.8
05/06:30am WSW 6 8 - - - - - - - 19.1 1008.3 6.8
05/06:00am SW 7 9 - - - - - - - 18.7 1008.3 6.8
05/05:30am WSW 7 9 - - - - - - - 18.7 1008.1 6.8
05/05:00am SW 7 8 - - - - - - - 18.9 1008.1 6.8
05/04:30am WSW 6 7 - - - - - - - 19.0 1007.9 6.8
05/04:00am WSW 7 8 - - - - - - - 19.2 1008.0 6.8
05/03:30am WSW 7 8 - - - - - - - 19.3 1008.2 6.8
05/03:00am SW 7 8 - - - - - - - 19.8 1008.4 6.8
05/02:30am SW 7 8 - - - - - - - 19.9 1008.7 6.8
05/02:00am WSW 3 6 - - - - - - - 20.4 1009.0 6.8
05/01:30am ESE 6 8 - - - - - - - 20.7 1009.2 6.8
05/01:00am ESE 7 9 - - - - - - - 20.9 1009.5 6.8
05/12:30am E 8 10 - - - - - - - 21.8 1009.7 6.8
05/12:00am ESE 8 11 - - - - - - - 22.3 1010.0 6.8
 
Date/Time
EST
Wind Sea
Height
m
Swell Vis
km
Cloud Weather Temp
°C
Press
MSL
hPa
Rain since
9am
mm
Dir  Spd
kts
Gust
kts
Height
m
Period
s
Dir
04/11:30pm ESE 8 10 - - - - - - - 22.8 1010.0 6.8
04/11:00pm ESE 8 11 - - - - - - - 22.9 1010.4 6.8
04/10:30pm ESE 10 12 - - - - - - - 23.1 1010.6 6.8
04/10:00pm ESE 11 14 - - - - - - - 23.2 1010.7 6.8
04/09:30pm ESE 11 13 - - - - - - - 23.2 1010.7 6.8
04/09:00pm ESE 12 15 - - - - - - - 23.6 1010.8 6.8
04/08:30pm ESE 12 16 - - - - - - - 23.6 1010.6 6.8
04/08:00pm ESE 13 15 - - - - - - - 23.9 1010.5 6.8

Other formats

Comma delimited format used in spreadsheet applications
http://www.bom.gov.au/fwo/IDQ60701/IDQ60701.95591.axf

JavaScript Object Notation format (JSON) in row-major order
http://www.bom.gov.au/fwo/IDQ60701/IDQ60701.95591.json

Data quality

Most of these data are generated automatically and are frequently updated. Quality checks on data are not normally performed. It is possible for incorrect values to appear. Refer to information at About Latest Weather Observations and please check the disclaimer before using these data.